Time;durP1;ratioP1;P1;durP2;ratioP2;P2;SDS_P1;SDS_P2;PMS_P1;PMS_P2;Temp;Humidity;BMP_temperature;BMP_pressure;BME280_temperature;BME280_humidity;BME280_pressure;Samples;Min_cycle;Max_cycle;Signal;HPM_P1;HPM_P2
2022/04/04 00:01:53;;;;;;;1.20;1.20;;;-0.10;98.00;;;;;;6120823;23;20416;-67
2022/04/04 00:04:20;;;;;;;1.70;1.43;;;-0.10;98.00;;;;;;6121036;23;20912;-66
2022/04/04 00:06:47;;;;;;;1.70;1.53;;;-0.20;98.00;;;;;;6120279;23;20445;-67
2022/04/04 00:09:16;;;;;;;1.20;1.00;;;-0.30;98.00;;;;;;6120592;23;20490;-67
2022/04/04 00:11:45;;;;;;;1.30;1.30;;;-0.40;98.00;;;;;;6094342;23;20942;-67
2022/04/04 00:14:19;;;;;;;1.40;1.40;;;-0.50;98.00;;;;;;6120153;23;20450;-68
2022/04/04 00:16:46;;;;;;;1.40;1.23;;;-0.40;98.00;;;;;;6120480;23;20490;-68
2022/04/04 00:19:14;;;;;;;1.20;1.07;;;-0.40;98.00;;;;;;6120542;23;20431;-67
2022/04/04 00:21:41;;;;;;;1.20;1.10;;;-0.50;98.00;;;;;;6120626;23;20466;-66
2022/04/04 00:24:09;;;;;;;1.87;1.60;;;-0.60;98.00;;;;;;6120511;23;20448;-66
2022/04/04 00:26:36;;;;;;;1.30;1.17;;;-0.60;98.00;;;;;;6120665;23;20476;-68
2022/04/04 00:29:04;;;;;;;1.83;1.77;;;-0.70;98.00;;;;;;6120839;23;20451;-68
2022/04/04 00:31:31;;;;;;;2.53;2.37;;;-0.50;98.00;;;;;;6120908;23;20408;-67
2022/04/04 00:33:59;;;;;;;1.60;1.50;;;-0.50;98.00;;;;;;6094234;23;20417;-67
2022/04/04 00:36:28;;;;;;;1.33;1.27;;;-0.60;98.00;;;;;;6094924;23;20450;-67
2022/04/04 00:38:55;;;;;;;1.57;1.37;;;-0.60;98.00;;;;;;6120449;23;20860;-67
2022/04/04 00:41:24;;;;;;;1.63;1.53;;;-0.70;98.00;;;;;;6094389;23;20892;-67
2022/04/04 00:43:51;;;;;;;3.00;2.07;;;-0.50;98.00;;;;;;6095195;23;20407;-67
2022/04/04 00:46:20;;;;;;;3.00;2.50;;;-0.50;98.00;;;;;;6120063;23;20447;-67
2022/04/04 00:48:48;;;;;;;3.23;2.20;;;-0.50;98.00;;;;;;6119982;23;20404;-67
2022/04/04 00:51:15;;;;;;;1.77;1.40;;;-0.50;98.00;;;;;;6120102;23;20852;-67
2022/04/04 00:53:42;;;;;;;1.67;1.27;;;-0.50;98.00;;;;;;6120278;23;20423;-67
2022/04/04 00:56:11;;;;;;;1.17;0.97;;;-0.50;98.00;;;;;;6120353;23;20451;-67
2022/04/04 00:58:39;;;;;;;2.20;1.60;;;-0.60;98.00;;;;;;6120352;23;20966;-68
2022/04/04 01:01:07;;;;;;;1.87;1.67;;;-0.90;98.00;;;;;;6120590;23;20532;-67
2022/04/04 01:03:36;;;;;;;1.60;1.10;;;-1.00;98.00;;;;;;6120711;23;20404;-67
2022/04/04 01:06:03;;;;;;;1.20;1.10;;;-1.10;98.00;;;;;;6120226;23;20833;-67
2022/04/04 01:08:31;;;;;;;1.73;1.53;;;-1.10;98.00;;;;;;6120542;23;20406;-67
2022/04/04 01:10:58;;;;;;;4.20;2.17;;;-1.10;98.00;;;;;;6119996;23;20468;-67
2022/04/04 01:13:25;;;;;;;1.30;1.20;;;-1.00;98.00;;;;;;6121129;23;20426;-67
2022/04/04 01:15:52;;;;;;;2.90;2.30;;;-0.90;98.00;;;;;;6120453;23;20399;-66
2022/04/04 01:18:19;;;;;;;2.63;1.83;;;-0.90;98.00;;;;;;6120547;23;20418;-67
2022/04/04 01:20:47;;;;;;;1.20;1.10;;;-0.80;98.00;;;;;;6120553;23;20419;-67
2022/04/04 01:23:21;;;;;;;1.20;1.10;;;-0.90;98.00;;;;;;6120743;23;20477;-67
2022/04/04 01:25:49;;;;;;;4.13;2.57;;;-1.00;98.00;;;;;;6120390;23;20462;-66
2022/04/04 01:28:16;;;;;;;2.00;1.87;;;-0.90;98.00;;;;;;6094475;23;20459;-67
2022/04/04 01:30:43;;;;;;;2.73;1.87;;;-0.80;98.00;;;;;;6120321;23;20424;-67
2022/04/04 01:33:10;;;;;;;1.30;1.20;;;-0.80;98.00;;;;;;6094158;23;20427;-67
2022/04/04 01:35:38;;;;;;;3.33;2.07;;;-0.80;98.00;;;;;;6120287;23;20406;-68
2022/04/04 01:38:05;;;;;;;1.20;1.00;;;-0.90;98.00;;;;;;6094479;23;20429;-67
2022/04/04 01:40:32;;;;;;;2.43;1.90;;;-0.90;98.00;;;;;;6120186;23;20811;-67
2022/04/04 01:43:00;;;;;;;1.20;1.10;;;-0.90;98.00;;;;;;6119820;23;20420;-67
2022/04/04 01:48:12;;;;;;;1.80;1.67;;;-1.00;98.00;;;;;;6120043;23;20757;-67
2022/04/04 01:50:39;;;;;;;2.00;1.30;;;-1.00;98.00;;;;;;6119817;23;20774;-67
2022/04/04 01:55:51;;;;;;;1.20;1.20;;;-0.80;98.00;;;;;;6098111;23;20775;-67
2022/04/04 01:58:20;;;;;;;2.73;2.20;;;-0.80;98.00;;;;;;6119889;23;21052;-67
2022/04/04 02:00:47;;;;;;;1.50;1.40;;;-0.90;98.00;;;;;;6120240;23;20439;-67
2022/04/04 02:03:15;;;;;;;1.10;1.00;;;-1.10;98.00;;;;;;6094437;23;20410;-68
2022/04/04 02:05:42;;;;;;;1.50;1.50;;;-1.10;98.00;;;;;;6119649;23;20484;-68
2022/04/04 02:08:10;;;;;;;1.67;1.67;;;-1.20;98.00;;;;;;6119840;23;20438;-67
2022/04/04 02:10:37;;;;;;;4.87;2.33;;;-1.10;98.00;;;;;;6094636;23;20418;-68
2022/04/04 02:13:04;;;;;;;2.67;1.67;;;-1.20;98.00;;;;;;6094480;23;20402;-67
2022/04/04 02:15:32;;;;;;;2.30;1.97;;;-1.30;98.00;;;;;;6120349;23;20460;-67
2022/04/04 02:17:59;;;;;;;1.40;1.40;;;-1.20;98.00;;;;;;6119409;23;20726;-67
2022/04/04 02:20:26;;;;;;;2.57;2.20;;;-1.20;98.00;;;;;;6119915;23;20464;-66
2022/04/04 02:22:53;;;;;;;1.80;1.70;;;-1.10;98.00;;;;;;6119864;23;20455;-67
2022/04/04 02:25:19;;;;;;;1.40;1.30;;;-1.10;98.00;;;;;;6119370;23;20443;-67
2022/04/04 02:27:46;;;;;;;1.23;1.20;;;-1.10;98.00;;;;;;6119833;23;20444;-67
2022/04/04 02:30:16;;;;;;;1.20;1.20;;;-1.20;98.00;;;;;;6119468;23;20418;-67
2022/04/04 02:32:45;;;;;;;1.20;1.10;;;-1.30;98.00;;;;;;6129224;23;20400;-67
2022/04/04 02:35:12;;;;;;;1.30;1.20;;;-1.40;98.00;;;;;;6119876;23;20444;-67
2022/04/04 02:37:39;;;;;;;1.75;1.45;;;-1.40;98.00;;;;;;6093142;23;20423;-66
2022/04/04 02:40:07;;;;;;;1.20;1.20;;;-1.50;98.00;;;;;;6119712;23;20190;-67
2022/04/04 02:42:34;;;;;;;1.37;1.33;;;-1.50;98.00;;;;;;6119856;23;20440;-67
2022/04/04 02:45:01;;;;;;;2.13;1.90;;;-1.50;98.00;;;;;;6119650;23;20745;-66
2022/04/04 02:47:28;;;;;;;1.20;1.07;;;-1.70;98.00;;;;;;6094297;23;20461;-67
2022/04/04 02:49:56;;;;;;;4.03;2.93;;;-1.70;98.00;;;;;;6119068;23;20438;-67
2022/04/04 02:52:24;;;;;;;2.87;1.57;;;-1.70;98.00;;;;;;6119474;23;20419;-66
2022/04/04 02:54:51;;;;;;;1.73;1.50;;;-1.60;98.00;;;;;;6119159;23;20956;-67
2022/04/04 02:57:18;;;;;;;1.47;1.43;;;-1.70;98.00;;;;;;6119255;23;20418;-66
2022/04/04 02:59:45;;;;;;;1.40;1.17;;;-1.70;98.00;;;;;;6119462;23;20734;-67
2022/04/04 03:02:12;;;;;;;1.92;1.58;;;-1.80;98.00;;;;;;6119747;23;20724;-67
2022/04/04 03:04:40;;;;;;;2.47;1.57;;;-1.60;98.00;;;;;;6119600;23;20185;-67
2022/04/04 03:07:08;;;;;;;1.20;1.08;;;-1.50;98.00;;;;;;6119706;23;20437;-67
2022/04/04 03:09:37;;;;;;;2.07;1.10;;;-1.40;98.00;;;;;;6119503;23;20187;-67
2022/04/04 03:12:06;;;;;;;1.43;1.40;;;-1.40;98.00;;;;;;6119377;23;20419;-67
2022/04/04 03:14:33;;;;;;;1.40;1.37;;;-1.40;98.00;;;;;;6093278;23;20417;-67
2022/04/04 03:17:00;;;;;;;1.20;1.20;;;-1.50;98.00;;;;;;6119397;23;20422;-67
2022/04/04 03:19:28;;;;;;;2.17;1.43;;;-1.70;98.00;;;;;;6119388;23;20477;-67
2022/04/04 03:21:56;;;;;;;1.10;1.00;;;-1.80;98.00;;;;;;6119346;23;20424;-67
2022/04/04 03:24:24;;;;;;;1.40;1.20;;;-1.70;98.00;;;;;;6119431;23;20555;-67
2022/04/04 03:26:51;;;;;;;1.30;1.20;;;-1.70;98.00;;;;;;6119252;23;20969;-68
2022/04/04 03:29:18;;;;;;;1.50;1.33;;;-1.70;98.00;;;;;;6119338;23;20174;-66
2022/04/04 03:31:45;;;;;;;1.30;1.20;;;-1.70;98.00;;;;;;6120536;23;20734;-67
2022/04/04 03:34:12;;;;;;;1.50;1.47;;;-1.60;98.00;;;;;;6120347;23;20419;-67
2022/04/04 03:36:40;;;;;;;1.63;1.53;;;-1.60;98.00;;;;;;6120472;23;20967;-68
2022/04/04 03:39:07;;;;;;;1.20;1.07;;;-1.70;98.00;;;;;;6120314;23;20437;-67
2022/04/04 03:41:35;;;;;;;1.40;1.33;;;-1.60;98.00;;;;;;6120788;23;20418;-66
2022/04/04 03:44:02;;;;;;;2.13;1.97;;;-1.70;98.00;;;;;;6119972;23;20182;-66
2022/04/04 03:46:29;;;;;;;1.63;1.60;;;-1.50;98.00;;;;;;6120635;23;20431;-67
2022/04/04 03:48:56;;;;;;;2.30;2.10;;;-1.50;98.00;;;;;;6120429;23;20406;-67
2022/04/04 03:51:24;;;;;;;1.27;1.10;;;-1.70;98.00;;;;;;6120232;23;20212;-67
2022/04/04 03:53:51;;;;;;;2.70;1.80;;;-1.60;98.00;;;;;;6119468;23;20206;-67
2022/04/04 03:56:18;;;;;;;1.50;1.40;;;-1.70;98.00;;;;;;6121112;23;20216;-67
2022/04/04 03:58:46;;;;;;;2.00;1.92;;;-1.70;98.00;;;;;;6120340;23;20433;-66
2022/04/04 04:01:13;;;;;;;1.20;1.17;;;-1.70;98.00;;;;;;6095135;23;20180;-67
2022/04/04 04:03:40;;;;;;;2.17;1.50;;;-1.70;98.00;;;;;;6120601;23;20426;-67
2022/04/04 04:06:14;;;;;;;1.50;1.40;;;-1.70;98.00;;;;;;6120532;23;20430;-67
2022/04/04 04:08:43;;;;;;;1.77;1.73;;;-1.80;98.00;;;;;;6120290;23;20477;-66
2022/04/04 04:11:10;;;;;;;1.40;1.40;;;-1.80;98.00;;;;;;6120583;23;20430;-66
2022/04/04 04:13:38;;;;;;;1.20;1.13;;;-1.80;98.00;;;;;;6120234;23;20615;-68
2022/04/04 04:16:09;;;;;;;1.20;1.03;;;-1.80;98.00;;;;;;6120207;23;20418;-67
2022/04/04 04:18:36;;;;;;;2.17;1.63;;;-1.90;98.00;;;;;;6120604;23;20397;-67
2022/04/04 04:21:03;;;;;;;1.40;1.33;;;-1.90;98.00;;;;;;6120578;23;20410;-67
2022/04/04 04:23:30;;;;;;;1.77;1.67;;;-2.00;98.00;;;;;;6094894;23;20451;-67
2022/04/04 04:25:58;;;;;;;1.77;1.40;;;-2.00;98.00;;;;;;6120390;23;20433;-67
2022/04/04 04:28:25;;;;;;;2.77;1.77;;;-1.90;98.00;;;;;;6120079;23;20415;-66
2022/04/04 04:30:52;;;;;;;1.65;1.55;;;-1.90;98.00;;;;;;6120406;23;20739;-66
2022/04/04 04:33:22;;;;;;;1.30;1.30;;;-1.90;98.00;;;;;;6120331;23;20178;-67
2022/04/04 04:35:49;;;;;;;1.50;1.23;;;-1.90;98.00;;;;;;6120395;23;20724;-67
2022/04/04 04:38:15;;;;;;;1.30;1.30;;;-2.00;98.00;;;;;;6120467;23;20182;-67
2022/04/04 04:40:42;;;;;;;1.20;1.10;;;-1.90;98.00;;;;;;6120468;23;20209;-67
2022/04/04 04:43:10;;;;;;;2.20;1.80;;;-1.80;98.00;;;;;;6120014;23;20424;-67
2022/04/04 04:45:37;;;;;;;2.38;2.17;;;-1.70;98.00;;;;;;6120217;23;20235;-66
2022/04/04 04:48:05;;;;;;;2.40;2.27;;;-1.70;98.00;;;;;;6095053;23;20228;-67
2022/04/04 04:50:36;;;;;;;1.20;1.10;;;-1.70;98.00;;;;;;6120147;23;20512;-67
2022/04/04 04:53:03;;;;;;;1.87;1.60;;;-1.70;98.00;;;;;;6120462;23;20220;-66
2022/04/04 04:55:31;;;;;;;1.40;1.33;;;-1.70;98.00;;;;;;6120382;23;20424;-68
2022/04/04 04:57:58;;;;;;;2.43;2.10;;;-1.70;98.00;;;;;;6094186;23;20472;-67
2022/04/04 05:00:28;;;;;;;2.23;2.03;;;-1.80;98.00;;;;;;6120088;23;20636;-67
2022/04/04 05:05:37;;;;;;;7.63;2.67;;;-2.00;98.00;;;;;;6118502;23;20429;-67
2022/04/04 05:08:05;;;;;;;1.50;1.33;;;-2.10;98.00;;;;;;6120322;23;20554;-67
2022/04/04 05:10:32;;;;;;;1.20;1.10;;;-2.00;98.00;;;;;;6120047;23;20645;-67
2022/04/04 05:12:59;;;;;;;1.20;1.10;;;-2.10;98.00;;;;;;6120393;23;20167;-66
2022/04/04 05:15:26;;;;;;;4.80;2.65;;;-2.20;98.00;;;;;;6120392;23;20439;-67
2022/04/04 05:17:55;;;;;;;1.38;1.25;;;-2.30;98.00;;;;;;6120238;23;20162;-67
2022/04/04 05:20:22;;;;;;;2.63;1.77;;;-2.20;98.00;;;;;;6120358;23;20181;-67
2022/04/04 05:22:51;;;;;;;1.65;1.55;;;-2.00;98.00;;;;;;6120279;23;20226;-66
2022/04/04 05:25:18;;;;;;;1.77;1.75;;;-1.90;98.00;;;;;;6120105;23;20174;-67
2022/04/04 05:27:45;;;;;;;1.48;1.42;;;-1.80;98.00;;;;;;6120092;23;20244;-67
2022/04/04 05:30:12;;;;;;;1.30;1.27;;;-1.60;98.00;;;;;;6120092;23;20205;-66
2022/04/04 05:32:39;;;;;;;4.03;2.08;;;-1.60;98.00;;;;;;6119875;23;20418;-66
2022/04/04 05:35:07;;;;;;;3.80;2.45;;;-1.50;98.00;;;;;;6120284;23;20209;-66
2022/04/04 05:37:35;;;;;;;2.85;1.95;;;-1.60;98.00;;;;;;6095195;23;20181;-67
2022/04/04 05:40:04;;;;;;;4.15;2.78;;;-1.60;98.00;;;;;;6120351;23;20177;-67
2022/04/04 05:42:32;;;;;;;2.53;2.00;;;-1.80;98.00;;;;;;6120668;23;20194;-67
2022/04/04 05:44:59;;;;;;;2.58;2.45;;;-1.80;98.00;;;;;;6120573;23;20232;-67
2022/04/04 05:47:26;;;;;;;1.52;1.42;;;-1.80;98.00;;;;;;6119877;23;20243;-67
2022/04/04 05:49:55;;;;;;;1.20;1.20;;;-1.90;98.00;;;;;;6119750;23;20217;-67
2022/04/04 05:52:23;;;;;;;1.20;1.10;;;-1.70;98.00;;;;;;6119534;23;20188;-67
2022/04/04 05:54:58;;;;;;;1.35;1.30;;;-1.70;98.00;;;;;;6120130;23;20165;-67
2022/04/04 05:57:28;;;;;;;5.13;2.97;;;-1.70;98.00;;;;;;6094923;23;20694;-66
2022/04/04 05:59:55;;;;;;;1.10;0.90;;;-1.80;98.00;;;;;;6094145;23;20549;-66
2022/04/04 06:02:23;;;;;;;1.10;1.10;;;-1.80;98.00;;;;;;6120192;23;21023;-67
2022/04/04 06:04:50;;;;;;;1.20;1.00;;;-1.90;98.00;;;;;;6094086;23;20257;-67
2022/04/04 06:07:17;;;;;;;1.65;1.48;;;-1.80;98.00;;;;;;6120013;23;20206;-67
2022/04/04 06:09:44;;;;;;;1.38;1.33;;;-1.60;98.00;;;;;;6120063;23;20571;-67
2022/04/04 06:12:12;;;;;;;1.17;1.00;;;-1.60;98.00;;;;;;6120088;23;20231;-67
2022/04/04 06:14:40;;;;;;;2.10;1.73;;;-1.50;98.00;;;;;;6119928;23;20412;-67
2022/04/04 06:17:07;;;;;;;1.37;1.30;;;-1.40;98.00;;;;;;6120446;23;20170;-67
2022/04/04 06:19:35;;;;;;;2.07;1.57;;;-1.50;98.00;;;;;;6120006;23;20426;-66
2022/04/04 06:22:03;;;;;;;2.08;1.92;;;-1.40;98.00;;;;;;6120062;23;20402;-66
2022/04/04 06:24:31;;;;;;;3.40;2.53;;;-1.40;98.00;;;;;;6119992;23;20170;-67
2022/04/04 06:26:58;;;;;;;1.60;1.50;;;-1.30;98.00;;;;;;6119455;23;20233;-67
2022/04/04 06:29:25;;;;;;;3.00;2.20;;;-1.30;98.00;;;;;;6094585;23;20167;-68
2022/04/04 06:31:55;;;;;;;1.40;1.40;;;-1.20;98.00;;;;;;6120366;23;20485;-66
2022/04/04 06:34:22;;;;;;;1.77;1.73;;;-1.00;98.00;;;;;;6119869;23;20437;-66
2022/04/04 06:36:49;;;;;;;4.87;3.30;;;-0.90;98.00;;;;;;6118751;23;20419;-67
2022/04/04 06:39:16;;;;;;;2.50;1.93;;;-0.80;98.00;;;;;;6119236;23;20906;-68
2022/04/04 06:41:43;;;;;;;1.55;1.45;;;-0.60;98.00;;;;;;6093983;23;20423;-67
2022/04/04 06:44:10;;;;;;;2.95;1.85;;;-0.50;98.00;;;;;;6119385;23;20654;-68
2022/04/04 06:46:37;;;;;;;2.73;2.53;;;-0.50;98.00;;;;;;6119287;23;20204;-67
2022/04/04 06:49:06;;;;;;;1.13;1.03;;;-0.40;98.00;;;;;;6118965;23;20973;-67
2022/04/04 06:51:33;;;;;;;1.77;1.73;;;-0.20;98.00;;;;;;6119668;23;20476;-67
2022/04/04 06:54:00;;;;;;;1.20;1.13;;;0.00;98.00;;;;;;6119515;23;20424;-68
2022/04/04 06:56:27;;;;;;;1.40;1.30;;;0.10;98.00;;;;;;6119700;23;20416;-67
2022/04/04 06:58:55;;;;;;;2.43;2.23;;;0.20;98.00;;;;;;6119053;23;20419;-68
2022/04/04 07:01:22;;;;;;;1.73;1.73;;;0.30;98.00;;;;;;6119738;23;20429;-67
2022/04/04 07:03:49;;;;;;;1.63;1.53;;;0.40;98.00;;;;;;6093374;23;20402;-67
2022/04/04 07:06:17;;;;;;;1.83;1.73;;;0.30;98.00;;;;;;6119774;23;20419;-67
2022/04/04 07:08:45;;;;;;;1.20;1.20;;;0.30;98.00;;;;;;6120624;23;20477;-68
2022/04/04 07:11:13;;;;;;;3.83;2.60;;;0.50;98.00;;;;;;6120810;23;20431;-66
2022/04/04 07:13:40;;;;;;;2.77;1.73;;;0.70;98.00;;;;;;6120546;23;20472;-66
2022/04/04 07:16:07;;;;;;;1.20;1.00;;;0.80;98.00;;;;;;6120809;23;20749;-67
2022/04/04 07:18:34;;;;;;;1.20;1.10;;;0.90;98.00;;;;;;6119957;23;20978;-67
2022/04/04 07:21:01;;;;;;;1.53;1.47;;;1.00;98.00;;;;;;6120446;23;20415;-67
2022/04/04 07:23:30;;;;;;;1.80;1.70;;;1.00;98.00;;;;;;6095485;23;20482;-65
2022/04/04 07:25:57;;;;;;;1.70;1.60;;;1.00;98.00;;;;;;6120232;23;20411;-65
2022/04/04 07:28:24;;;;;;;1.53;1.37;;;1.00;98.00;;;;;;6120747;23;20471;-65
2022/04/04 07:30:52;;;;;;;1.40;1.30;;;1.00;98.00;;;;;;6118891;23;20420;-65
2022/04/04 07:33:19;;;;;;;1.50;1.40;;;1.20;98.00;;;;;;6120733;23;20502;-65
2022/04/04 07:35:47;;;;;;;1.23;1.23;;;1.30;98.00;;;;;;6118708;23;20412;-66
2022/04/04 07:38:14;;;;;;;1.20;1.10;;;1.50;98.00;;;;;;6119265;23;20871;-65
2022/04/04 07:40:43;;;;;;;1.63;1.60;;;1.60;98.00;;;;;;6119745;23;20411;-66
2022/04/04 07:43:10;;;;;;;2.70;1.87;;;1.70;98.00;;;;;;6119401;23;20414;-66
2022/04/04 07:45:37;;;;;;;1.20;1.20;;;1.90;98.00;;;;;;6119247;23;20466;-66
2022/04/04 07:48:05;;;;;;;1.40;1.30;;;2.10;98.00;;;;;;6119939;23;20538;-66
2022/04/04 07:50:33;;;;;;;1.83;1.73;;;2.30;98.00;;;;;;6117895;23;20432;-65
2022/04/04 07:53:00;;;;;;;1.43;1.40;;;2.60;98.00;;;;;;6119170;23;20922;-66
2022/04/04 07:55:27;;;;;;;1.30;1.10;;;2.60;98.00;;;;;;6119718;23;20421;-66
2022/04/04 07:57:56;;;;;;;1.40;1.30;;;2.60;98.00;;;;;;6094289;23;20741;-65
2022/04/04 08:00:24;;;;;;;2.40;2.20;;;2.70;98.00;;;;;;6120719;23;21162;-65
2022/04/04 08:02:51;;;;;;;6.33;1.67;;;2.80;98.00;;;;;;6120069;23;20497;-65
2022/04/04 08:05:19;;;;;;;2.70;2.50;;;3.00;98.00;;;;;;6120139;23;20900;-65
2022/04/04 08:07:48;;;;;;;1.50;1.10;;;3.20;98.00;;;;;;6120653;23;20448;-65
2022/04/04 08:10:16;;;;;;;1.63;1.20;;;3.30;98.00;;;;;;6120837;23;20401;-65
2022/04/04 08:12:43;;;;;;;1.20;1.10;;;3.30;98.00;;;;;;6120402;23;20508;-64
2022/04/04 08:15:12;;;;;;;1.40;1.33;;;3.50;98.00;;;;;;6120964;23;20448;-65
2022/04/04 08:17:39;;;;;;;1.50;1.40;;;3.40;97.80;;;;;;6120348;23;20424;-65
2022/04/04 08:20:08;;;;;;;9.63;2.43;;;3.40;98.00;;;;;;6120718;23;20463;-64
2022/04/04 08:22:39;;;;;;;1.40;1.27;;;3.40;98.00;;;;;;6120875;23;20402;-65
2022/04/04 08:25:07;;;;;;;1.30;1.10;;;3.60;98.00;;;;;;6119610;23;20426;-65
2022/04/04 08:27:35;;;;;;;1.33;1.33;;;4.50;98.00;;;;;;6120340;23;21007;-66
2022/04/04 08:30:06;;;;;;;1.40;1.13;;;5.00;98.00;;;;;;6120431;23;20423;-64
2022/04/04 08:32:36;;;;;;;1.83;1.40;;;5.30;98.00;;;;;;6120991;23;20771;-66
2022/04/04 08:35:04;;;;;;;1.80;1.50;;;5.30;96.50;;;;;;6120571;23;20518;-65
2022/04/04 08:37:31;;;;;;;2.40;1.63;;;5.30;94.60;;;;;;6120244;23;20427;-66
2022/04/04 08:39:58;;;;;;;1.77;1.40;;;5.30;96.50;;;;;;6120053;23;20954;-66
2022/04/04 08:42:27;;;;;;;1.40;1.40;;;5.30;94.40;;;;;;6120258;23;20397;-65
2022/04/04 08:44:56;;;;;;;1.20;1.20;;;5.30;94.20;;;;;;6121564;23;20525;-65
2022/04/04 08:47:24;;;;;;;3.10;1.50;;;5.20;94.00;;;;;;6119964;23;20426;-66
2022/04/04 08:49:54;;;;;;;1.83;1.80;;;5.30;93.90;;;;;;6120170;23;20473;-63
2022/04/04 08:52:22;;;;;;;2.47;1.87;;;5.30;94.00;;;;;;6094742;23;20468;-65
2022/04/04 08:54:49;;;;;;;2.13;1.77;;;5.30;94.90;;;;;;6120398;23;20468;-65
2022/04/04 08:57:16;;;;;;;1.73;1.20;;;5.20;94.60;;;;;;6120404;23;20747;-66
2022/04/04 08:59:44;;;;;;;1.83;1.73;;;5.30;97.50;;;;;;6119924;23;20430;-65
2022/04/04 09:02:12;;;;;;;1.50;1.50;;;5.80;95.30;;;;;;6120201;23;20424;-66
2022/04/04 09:04:40;;;;;;;1.57;1.50;;;5.70;90.10;;;;;;6129790;23;20430;-67
2022/04/04 09:07:10;;;;;;;1.20;1.10;;;5.80;92.00;;;;;;6119894;23;20430;-66
2022/04/04 09:09:42;;;;;;;2.07;1.80;;;5.80;90.90;;;;;;6120370;23;20480;-65
2022/04/04 09:12:11;;;;;;;1.90;1.70;;;5.80;90.20;;;;;;6120370;23;20458;-66
2022/04/04 09:14:43;;;;;;;1.83;1.47;;;5.70;87.90;;;;;;6119949;23;20413;-67
2022/04/04 09:17:12;;;;;;;1.20;1.10;;;5.90;92.20;;;;;;6120383;23;20754;-67
2022/04/04 09:19:39;;;;;;;1.57;1.50;;;6.00;90.00;;;;;;6119833;23;20927;-67
2022/04/04 09:22:10;;;;;;;1.27;1.23;;;6.00;88.00;;;;;;6120331;23;20419;-66
2022/04/04 09:24:55;;;;;;;1.50;1.27;;;6.10;89.00;;;;;;6119737;23;20406;-66
2022/04/04 09:27:24;;;;;;;2.47;1.27;;;6.10;86.60;;;;;;6117420;23;20448;-67
2022/04/04 09:29:53;;;;;;;1.30;1.10;;;6.10;86.50;;;;;;6119572;23;20406;-66
2022/04/04 09:32:21;;;;;;;2.60;1.30;;;6.10;85.90;;;;;;6120254;23;20894;-67
2022/04/04 09:34:54;;;;;;;1.50;1.30;;;6.00;88.20;;;;;;6119830;23;20409;-66
2022/04/04 09:37:24;;;;;;;1.23;1.20;;;6.10;88.10;;;;;;6119973;23;20434;-67
2022/04/04 09:39:51;;;;;;;1.50;1.30;;;6.40;88.40;;;;;;6094640;23;20403;-66
2022/04/04 09:42:20;;;;;;;1.87;1.83;;;6.50;85.70;;;;;;6120240;23;20425;-69
2022/04/04 09:45:01;;;;;;;1.80;1.27;;;6.50;85.40;;;;;;6119548;23;20970;-67
2022/04/04 09:47:48;;;;;;;1.87;1.30;;;6.70;87.10;;;;;;6120579;23;20519;-66
2022/04/04 09:50:30;;;;;;;1.50;1.40;;;6.90;86.40;;;;;;6120787;23;20479;-68
2022/04/04 09:52:59;;;;;;;1.33;1.10;;;7.00;84.80;;;;;;6121468;23;20406;-67
2022/04/04 09:55:30;;;;;;;1.20;0.97;;;7.30;84.60;;;;;;6120751;23;20422;-68
2022/04/04 09:57:59;;;;;;;1.70;1.60;;;7.50;84.00;;;;;;6121264;23;20421;-68
2022/04/04 10:00:26;;;;;;;3.57;1.40;;;7.20;84.50;;;;;;6120744;23;20600;-68
2022/04/04 10:02:57;;;;;;;1.30;1.10;;;7.20;84.40;;;;;;6119959;23;20420;-69
2022/04/04 10:05:26;;;;;;;1.50;1.40;;;7.10;83.40;;;;;;6117612;23;20983;-66
2022/04/04 10:07:55;;;;;;;2.03;1.50;;;7.40;84.80;;;;;;6118650;23;20446;-68
2022/04/04 10:10:26;;;;;;;1.97;1.57;;;7.70;83.20;;;;;;6118643;23;20423;-68
2022/04/04 10:12:53;;;;;;;1.70;1.20;;;7.90;82.70;;;;;;6118871;23;20501;-68
2022/04/04 10:15:21;;;;;;;1.50;1.40;;;8.00;81.60;;;;;;6119023;23;20484;-68
2022/04/04 10:17:49;;;;;;;1.97;1.40;;;8.10;82.20;;;;;;6119095;23;20446;-68
2022/04/04 10:20:16;;;;;;;1.90;1.63;;;8.00;81.50;;;;;;6093831;23;20423;-68
2022/04/04 10:22:44;;;;;;;2.70;1.70;;;7.90;79.80;;;;;;6118977;23;20468;-67
2022/04/04 10:25:14;;;;;;;1.60;1.30;;;8.00;79.60;;;;;;6118822;23;20747;-66
2022/04/04 10:27:48;;;;;;;1.43;1.40;;;8.10;77.70;;;;;;6118993;23;20472;-67
2022/04/04 10:30:16;;;;;;;1.70;1.10;;;8.10;78.80;;;;;;6119163;23;20456;-67
2022/04/04 10:32:51;;;;;;;1.20;1.20;;;7.90;76.70;;;;;;6119486;23;20408;-67
2022/04/04 10:35:23;;;;;;;1.43;1.40;;;7.90;77.60;;;;;;6119020;23;20459;-67
2022/04/04 10:37:51;;;;;;;3.00;1.77;;;7.90;76.00;;;;;;6119195;23;20423;-66
2022/04/04 10:40:25;;;;;;;1.30;1.10;;;8.00;77.90;;;;;;6120723;23;20459;-66
2022/04/04 10:43:14;;;;;;;2.63;1.40;;;8.10;78.50;;;;;;6120538;23;20896;-66
2022/04/04 10:45:55;;;;;;;1.87;1.30;;;8.50;78.50;;;;;;6120917;23;20405;-67
2022/04/04 10:48:28;;;;;;;1.50;1.40;;;8.70;75.80;;;;;;6120349;23;20782;-66
2022/04/04 10:51:03;;;;;;;1.30;1.30;;;8.80;74.80;;;;;;6209282;23;20432;-68
2022/04/04 10:53:40;;;;;;;1.20;1.10;;;8.50;75.60;;;;;;6244980;22;20411;-68
2022/04/04 10:56:11;;;;;;;1.73;1.60;;;8.90;76.50;;;;;;6245120;22;20439;-67
2022/04/04 10:58:40;;;;;;;1.63;1.10;;;9.00;76.60;;;;;;6244460;22;20925;-67
2022/04/04 11:01:10;;;;;;;1.50;1.30;;;8.80;74.10;;;;;;6244684;22;20496;-67
2022/04/04 11:03:41;;;;;;;1.40;1.37;;;8.50;77.20;;;;;;6244082;22;20417;-66
2022/04/04 11:09:08;;;;;;;1.20;1.10;;;8.50;76.10;;;;;;6244339;23;20513;-67
2022/04/04 11:11:42;;;;;;;1.97;1.50;;;9.10;76.10;;;;;;6244408;22;20395;-67
2022/04/04 11:14:10;;;;;;;1.37;1.33;;;9.70;75.60;;;;;;6244887;22;20416;-68
2022/04/04 11:17:30;;;;;;;1.50;1.27;;;10.10;74.50;;;;;;6244196;22;20505;-67
2022/04/04 11:20:04;;;;;;;1.80;1.40;;;10.20;73.70;;;;;;6207078;22;20431;-67
2022/04/04 11:22:37;;;;;;;1.80;1.20;;;10.40;76.20;;;;;;6244705;22;20397;-67
2022/04/04 11:25:06;;;;;;;2.20;1.67;;;10.50;75.30;;;;;;6244069;22;20454;-67
2022/04/04 11:27:35;;;;;;;2.30;1.43;;;10.30;77.40;;;;;;6243017;23;20402;-66
2022/04/04 11:30:07;;;;;;;2.00;1.67;;;10.10;75.30;;;;;;6244141;22;20404;-67
2022/04/04 11:32:40;;;;;;;1.20;1.10;;;9.90;75.50;;;;;;6244459;22;20395;-67
2022/04/04 11:35:11;;;;;;;3.77;1.97;;;9.90;75.00;;;;;;6243844;22;20868;-67
2022/04/04 11:37:44;;;;;;;1.20;1.10;;;9.90;75.50;;;;;;6244407;22;20403;-67
2022/04/04 11:40:14;;;;;;;2.10;1.33;;;10.10;75.30;;;;;;6242561;23;20419;-67
2022/04/04 11:42:44;;;;;;;2.37;1.40;;;10.30;76.00;;;;;;6244311;22;20419;-68
2022/04/04 11:45:16;;;;;;;1.57;1.57;;;10.70;75.50;;;;;;6244354;22;20763;-67
2022/04/04 11:47:50;;;;;;;1.57;1.30;;;11.10;73.50;;;;;;6244457;22;20400;-68
2022/04/04 11:50:18;;;;;;;1.50;1.17;;;11.40;74.60;;;;;;6178298;22;20472;-68
2022/04/04 11:52:47;;;;;;;1.30;1.20;;;10.60;76.90;;;;;;6118735;23;20939;-67
2022/04/04 11:55:22;;;;;;;2.40;1.50;;;10.50;75.30;;;;;;6119103;23;20417;-68
2022/04/04 11:57:51;;;;;;;1.30;1.10;;;10.80;77.20;;;;;;6119423;23;20436;-68
2022/04/04 12:00:23;;;;;;;3.00;1.93;;;11.20;74.90;;;;;;6119479;23;20433;-67
2022/04/04 12:02:51;;;;;;;1.37;1.33;;;11.40;75.40;;;;;;6119325;23;20434;-68
2022/04/04 12:05:22;;;;;;;1.30;1.30;;;11.20;74.60;;;;;;6118974;23;20482;-68
2022/04/04 12:07:50;;;;;;;1.33;1.27;;;10.90;74.80;;;;;;6094257;23;20400;-68
2022/04/04 12:10:25;;;;;;;3.37;1.40;;;10.70;76.70;;;;;;6119414;23;20428;-68
2022/04/04 12:13:01;;;;;;;1.80;1.40;;;10.80;76.80;;;;;;6094175;23;20405;-67
2022/04/04 12:15:32;;;;;;;1.87;1.37;;;11.20;75.10;;;;;;6119130;23;20464;-68
2022/04/04 12:18:00;;;;;;;1.53;1.50;;;11.50;73.50;;;;;;6119620;23;20403;-68
2022/04/04 12:20:36;;;;;;;1.40;1.20;;;11.90;72.50;;;;;;6119346;23;20707;-67
2022/04/04 12:25:48;;;;;;;1.20;1.00;;;12.30;72.80;;;;;;6097678;23;20946;-69
2022/04/04 12:28:25;;;;;;;1.60;1.50;;;12.40;72.40;;;;;;6119361;23;20431;-65
2022/04/04 12:30:54;;;;;;;2.03;1.30;;;12.80;72.10;;;;;;6119164;23;20405;-65
2022/04/04 12:33:30;;;;;;;1.47;1.30;;;12.70;73.30;;;;;;6119324;23;20409;-68
2022/04/04 12:35:58;;;;;;;1.73;1.10;;;12.40;72.70;;;;;;6119735;23;20731;-68
2022/04/04 12:38:27;;;;;;;1.63;1.30;;;11.90;73.10;;;;;;6119217;23;20429;-68
2022/04/04 12:41:10;;;;;;;2.53;1.30;;;11.50;74.60;;;;;;6119543;23;20453;-68
2022/04/04 12:43:38;;;;;;;2.90;1.63;;;12.10;73.80;;;;;;6119732;23;20409;-67
2022/04/04 12:46:08;;;;;;;2.27;1.50;;;12.00;72.40;;;;;;6119476;23;20413;-67
2022/04/04 12:48:37;;;;;;;2.00;1.50;;;12.10;72.10;;;;;;6119056;23;20443;-67
2022/04/04 12:51:05;;;;;;;1.97;1.57;;;12.40;74.70;;;;;;6118190;23;20451;-68
2022/04/04 12:53:48;;;;;;;1.80;1.43;;;12.80;74.30;;;;;;6119331;23;20426;-69
2022/04/04 12:56:19;;;;;;;2.20;1.60;;;12.60;71.40;;;;;;6119345;23;20406;-67
2022/04/04 12:59:03;;;;;;;5.47;1.80;;;12.20;73.50;;;;;;6118969;23;20402;-68
2022/04/04 13:01:31;;;;;;;1.53;1.47;;;12.30;76.50;;;;;;6119172;23;20409;-68
2022/04/04 13:03:59;;;;;;;3.80;1.97;;;12.40;74.40;;;;;;6119038;23;20579;-68
2022/04/04 13:06:30;;;;;;;1.20;1.00;;;12.40;72.90;;;;;;6119539;23;20413;-68
2022/04/04 13:08:59;;;;;;;2.53;1.73;;;11.70;72.80;;;;;;6119368;23;20429;-68
2022/04/04 13:11:27;;;;;;;3.10;1.77;;;11.70;74.40;;;;;;6119507;23;20440;-68
2022/04/04 13:14:06;;;;;;;1.43;1.33;;;12.00;77.80;;;;;;6119075;23;20897;-69